createdAt,value
2017-09-20T00:00:15.590Z,99.90
2017-09-20T00:02:44.286Z,99.90
2017-09-20T00:05:12.971Z,99.90
2017-09-20T00:07:41.630Z,99.90
2017-09-20T00:10:10.294Z,99.90
2017-09-20T00:12:38.986Z,99.90
2017-09-20T00:15:07.645Z,99.90
2017-09-20T00:17:36.305Z,99.90
2017-09-20T00:20:04.981Z,99.90
2017-09-20T00:22:33.649Z,99.90
2017-09-20T00:25:02.315Z,99.90
2017-09-20T00:27:30.746Z,99.90
2017-09-20T00:29:59.191Z,99.90
2017-09-20T00:32:27.886Z,99.90
2017-09-20T00:34:56.318Z,99.90
2017-09-20T00:37:25.750Z,99.90
2017-09-20T00:39:54.413Z,99.90
2017-09-20T00:42:23.862Z,99.90
2017-09-20T00:44:52.538Z,99.90
2017-09-20T00:47:21.201Z,99.90
2017-09-20T00:49:49.617Z,99.90
2017-09-20T00:52:18.319Z,99.90
2017-09-20T00:54:47.057Z,99.90
2017-09-20T00:57:15.060Z,99.90
2017-09-20T00:59:43.029Z,99.90
2017-09-20T01:02:11.699Z,99.90
2017-09-20T01:04:40.669Z,99.90
2017-09-20T01:07:09.333Z,99.90
2017-09-20T01:09:38.011Z,99.90
2017-09-20T01:12:06.726Z,99.90
2017-09-20T01:14:35.610Z,99.90
2017-09-20T01:17:05.050Z,99.90
2017-09-20T01:19:33.389Z,99.90
2017-09-20T01:22:12.825Z,99.90
2017-09-20T01:24:40.905Z,99.90
2017-09-20T01:27:08.870Z,99.90
2017-09-20T01:29:38.350Z,99.90
2017-09-20T01:32:06.822Z,99.90
2017-09-20T01:34:35.500Z,99.90
2017-09-20T01:37:04.674Z,99.90
2017-09-20T01:39:33.376Z,99.90
2017-09-20T01:42:01.782Z,99.90
2017-09-20T01:44:30.496Z,99.90
2017-09-20T01:46:59.976Z,99.90
2017-09-20T01:49:28.414Z,99.90
2017-09-20T01:51:57.115Z,99.90
2017-09-20T01:54:25.801Z,99.90
2017-09-20T01:56:54.469Z,99.90
2017-09-20T01:59:22.881Z,99.90
2017-09-20T02:01:51.574Z,99.90
2017-09-20T02:04:20.245Z,99.90
2017-09-20T02:09:14.741Z,99.90
2017-09-20T02:11:43.406Z,99.90
2017-09-20T02:14:12.833Z,99.90
2017-09-20T02:16:41.521Z,99.90
2017-09-20T02:19:10.181Z,99.90
2017-09-20T02:21:39.610Z,99.90
2017-09-20T02:24:08.285Z,99.90
2017-09-20T02:26:36.944Z,99.90
2017-09-20T02:29:05.614Z,99.90
2017-09-20T02:31:34.318Z,99.90
2017-09-20T02:34:02.758Z,99.90
2017-09-20T02:36:30.792Z,99.90
2017-09-20T02:38:59.157Z,99.90
2017-09-20T02:41:27.857Z,99.90
2017-09-20T02:43:56.530Z,99.90
2017-09-20T02:46:25.319Z,99.90
2017-09-20T02:48:54.034Z,99.90
2017-09-20T02:51:22.702Z,99.90
2017-09-20T02:53:52.141Z,99.90
2017-09-20T02:56:20.859Z,99.90
2017-09-20T02:58:49.285Z,99.90
2017-09-20T03:01:17.674Z,99.90
2017-09-20T03:03:46.373Z,99.90
2017-09-20T03:06:15.818Z,99.90
2017-09-20T03:08:44.502Z,99.90
2017-09-20T03:11:13.162Z,99.90
2017-09-20T03:13:41.857Z,99.90
2017-09-20T03:16:10.521Z,99.90
2017-09-20T03:18:39.177Z,99.90
2017-09-20T03:21:07.900Z,99.90
2017-09-20T03:23:36.569Z,99.90
2017-09-20T03:26:05.239Z,99.90
2017-09-20T03:28:34.774Z,99.90
2017-09-20T03:31:03.464Z,99.90
2017-09-20T03:33:32.142Z,99.90
2017-09-20T03:36:00.903Z,99.90
2017-09-20T03:38:30.373Z,99.90
2017-09-20T03:40:59.046Z,99.90
2017-09-20T03:43:27.737Z,99.90
2017-09-20T03:45:56.407Z,99.90
2017-09-20T03:48:25.085Z,99.90
2017-09-20T03:50:53.758Z,99.90
2017-09-20T03:53:22.421Z,99.90
2017-09-20T03:55:51.086Z,99.90
2017-09-20T03:58:19.501Z,99.90
2017-09-20T04:00:48.930Z,99.90
2017-09-20T04:03:17.613Z,99.90
2017-09-20T04:05:46.279Z,99.90
2017-09-20T04:08:14.958Z,99.90
2017-09-20T04:10:44.402Z,99.90
2017-09-20T04:13:13.077Z,99.90
2017-09-20T04:15:41.776Z,99.90
2017-09-20T04:18:10.685Z,99.90
2017-09-20T04:20:39.346Z,99.90
2017-09-20T04:23:08.005Z,99.90
2017-09-20T04:25:36.681Z,99.90
2017-09-20T04:28:06.110Z,99.90
2017-09-20T04:30:34.780Z,99.90
2017-09-20T04:33:04.237Z,99.90
2017-09-20T04:35:32.921Z,99.90
2017-09-20T04:38:01.590Z,99.90
2017-09-20T04:40:30.277Z,99.90
2017-09-20T04:42:58.951Z,99.90
2017-09-20T04:45:27.617Z,99.90
2017-09-20T04:47:56.342Z,99.90
2017-09-20T04:50:25.109Z,99.90
2017-09-20T04:52:53.833Z,99.90
2017-09-20T04:55:22.536Z,99.90
2017-09-20T04:57:51.270Z,99.90
2017-09-20T05:00:20.269Z,99.90
2017-09-20T05:02:49.271Z,99.90
2017-09-20T05:05:17.973Z,99.90
2017-09-20T05:08:05.250Z,99.90
2017-09-20T05:10:34.206Z,99.90
2017-09-20T05:13:02.907Z,99.90
2017-09-20T05:15:31.592Z,99.90
2017-09-20T05:18:00.306Z,99.90
2017-09-20T05:20:29.783Z,99.90
2017-09-20T05:22:58.472Z,99.90
2017-09-20T05:25:27.158Z,99.90
2017-09-20T05:27:55.883Z,99.90
2017-09-20T05:30:24.449Z,99.90
2017-09-20T05:32:53.975Z,99.90
2017-09-20T05:35:23.489Z,99.90
2017-09-20T05:37:52.089Z,99.90
2017-09-20T05:40:20.846Z,99.90
2017-09-20T05:42:49.613Z,99.90
2017-09-20T05:45:18.394Z,99.90
2017-09-20T05:47:47.110Z,99.90
2017-09-20T05:50:16.911Z,99.90
2017-09-20T05:52:45.696Z,99.90
2017-09-20T05:55:15.221Z,99.90
2017-09-20T05:57:43.988Z,99.90
2017-09-20T06:00:13.497Z,99.90
2017-09-20T06:02:43.001Z,99.90
2017-09-20T06:05:11.397Z,99.90
2017-09-20T06:07:39.887Z,99.90
2017-09-20T06:10:08.475Z,99.90
2017-09-20T06:12:37.455Z,99.90
2017-09-20T06:15:06.210Z,99.90
2017-09-20T06:17:34.712Z,99.90
2017-09-20T06:20:03.229Z,99.90
2017-09-20T06:22:31.725Z,99.90
2017-09-20T06:25:00.246Z,99.90
2017-09-20T06:27:28.796Z,99.90
2017-09-20T06:29:58.065Z,99.90
2017-09-20T06:32:26.804Z,99.90
2017-09-20T06:34:55.352Z,99.90
2017-09-20T06:37:23.859Z,99.90
2017-09-20T06:39:53.167Z,99.90
2017-09-20T06:42:22.477Z,99.90
2017-09-20T06:44:50.984Z,99.90
2017-09-20T06:47:19.505Z,99.90
2017-09-20T06:49:47.878Z,99.90
2017-09-20T06:52:16.387Z,99.90
2017-09-20T06:54:45.093Z,99.90
2017-09-20T06:57:13.637Z,99.90
2017-09-20T06:59:42.153Z,99.90
2017-09-20T07:02:10.917Z,99.90
2017-09-20T07:04:39.471Z,99.90
2017-09-20T07:07:07.910Z,99.90
2017-09-20T07:09:36.732Z,99.90
2017-09-20T07:12:06.261Z,99.90
2017-09-20T07:14:34.770Z,99.90
2017-09-20T07:17:04.262Z,99.90
2017-09-20T07:19:33.794Z,99.90
2017-09-20T07:22:03.345Z,99.90
2017-09-20T07:24:32.047Z,99.90
2017-09-20T07:27:00.549Z,99.90
2017-09-20T07:29:29.054Z,99.90
2017-09-20T07:31:58.354Z,99.90
2017-09-20T07:34:27.642Z,99.90
2017-09-20T07:36:56.130Z,99.90
2017-09-20T07:39:24.830Z,99.90
2017-09-20T07:41:53.341Z,99.90
2017-09-20T07:44:21.753Z,99.90
2017-09-20T07:46:50.286Z,99.90
2017-09-20T07:49:18.830Z,99.90
2017-09-20T07:51:47.367Z,99.90
2017-09-20T07:54:15.892Z,99.90
2017-09-20T07:56:44.615Z,99.90
2017-09-20T07:59:13.878Z,99.90
2017-09-20T08:01:42.381Z,99.90
2017-09-20T08:04:10.889Z,99.90
2017-09-20T08:06:39.386Z,99.90
2017-09-20T08:09:08.118Z,99.90
2017-09-20T08:11:36.645Z,99.90
2017-09-20T08:14:05.150Z,99.90
2017-09-20T08:16:33.671Z,99.90
2017-09-20T08:19:02.239Z,99.90
2017-09-20T08:21:30.749Z,99.90
2017-09-20T08:23:59.579Z,99.90
2017-09-20T08:26:28.098Z,99.90
2017-09-20T08:28:56.617Z,99.90
2017-09-20T08:31:25.949Z,99.90
2017-09-20T08:33:54.731Z,99.90
2017-09-20T08:36:23.085Z,99.90
2017-09-20T08:38:52.221Z,99.90
2017-09-20T08:41:20.734Z,99.90
2017-09-20T08:43:49.105Z,99.90
2017-09-20T08:46:17.826Z,99.90
2017-09-20T08:48:46.385Z,99.90
2017-09-20T08:51:14.899Z,99.90
2017-09-20T08:53:43.734Z,99.90
2017-09-20T08:56:12.260Z,99.90
2017-09-20T08:58:40.801Z,99.90
2017-09-20T09:01:09.281Z,99.90
2017-09-20T09:03:37.823Z,99.90
2017-09-20T09:06:07.090Z,99.90
2017-09-20T09:08:35.689Z,99.90
2017-09-20T09:11:04.098Z,99.90
2017-09-20T09:13:32.458Z,99.90
2017-09-20T09:16:00.985Z,99.90
2017-09-20T09:18:29.472Z,99.90
2017-09-20T09:20:57.978Z,99.90
2017-09-20T09:23:26.543Z,99.90
2017-09-20T09:25:55.251Z,99.90
2017-09-20T09:28:23.766Z,99.90
2017-09-20T09:30:53.252Z,99.90
2017-09-20T09:33:21.751Z,99.90
2017-09-20T09:35:50.098Z,99.90
2017-09-20T09:38:18.592Z,99.90
2017-09-20T09:40:47.093Z,99.90
2017-09-20T09:43:15.598Z,99.90
2017-09-20T09:45:44.139Z,99.90
2017-09-20T09:48:12.873Z,99.90
2017-09-20T09:50:41.399Z,99.90
2017-09-20T09:53:09.929Z,99.90
2017-09-20T09:55:39.262Z,99.90
2017-09-20T09:58:07.776Z,99.90
2017-09-20T10:00:36.274Z,99.90
2017-09-20T10:03:04.785Z,99.90
2017-09-20T10:05:33.318Z,99.90
2017-09-20T10:08:01.809Z,99.90
2017-09-20T10:10:30.553Z,99.90
2017-09-20T10:12:59.052Z,99.90
2017-09-20T10:15:30.147Z,99.90
2017-09-20T10:17:58.697Z,99.90
2017-09-20T10:20:27.187Z,99.90
2017-09-20T10:22:55.671Z,99.90
2017-09-20T10:25:24.188Z,99.90
2017-09-20T10:27:52.660Z,99.90
2017-09-20T10:30:21.137Z,99.90
2017-09-20T10:32:49.656Z,99.90
2017-09-20T10:35:18.125Z,99.90
2017-09-20T10:37:47.401Z,99.90
2017-09-20T10:40:15.910Z,99.90
2017-09-20T10:42:47.390Z,99.90
2017-09-20T10:45:17.129Z,99.90
2017-09-20T10:47:45.590Z,99.90
2017-09-20T10:50:14.114Z,99.90
2017-09-20T10:52:42.654Z,99.90
2017-09-20T10:55:11.141Z,99.90
2017-09-20T10:57:39.622Z,99.90
2017-09-20T11:00:08.085Z,99.90
2017-09-20T11:02:36.551Z,99.90
2017-09-20T11:05:06.167Z,99.90
2017-09-20T11:07:35.367Z,99.90
2017-09-20T11:10:03.830Z,99.90
2017-09-20T11:12:32.300Z,99.90
2017-09-20T11:15:00.775Z,99.90
2017-09-20T11:17:29.251Z,97.10
2017-09-20T11:19:57.796Z,99.40
2017-09-20T11:22:26.266Z,99.90
2017-09-20T11:24:54.710Z,99.90
2017-09-20T11:27:23.264Z,96.50
2017-09-20T11:29:51.711Z,88.00
2017-09-20T11:32:20.192Z,76.80
2017-09-20T11:34:48.660Z,89.50
2017-09-20T11:37:17.853Z,73.80
2017-09-20T11:39:47.050Z,75.80
2017-09-20T11:42:15.528Z,75.80
2017-09-20T11:44:44.029Z,71.10
2017-09-20T11:47:12.513Z,78.90
2017-09-20T11:49:41.006Z,76.20
2017-09-20T11:52:09.427Z,77.40
2017-09-20T11:54:37.849Z,81.50
2017-09-20T11:57:07.061Z,67.80
2017-09-20T11:59:35.492Z,67.90
2017-09-20T12:02:03.897Z,62.10
2017-09-20T12:04:32.349Z,64.70
2017-09-20T12:07:01.546Z,71.60
2017-09-20T12:09:29.957Z,71.50
2017-09-20T12:11:58.400Z,61.10
2017-09-20T12:14:26.904Z,65.10
2017-09-20T12:16:55.329Z,63.80
2017-09-20T12:19:23.758Z,64.30
2017-09-20T12:21:52.385Z,64.90
2017-09-20T12:24:21.560Z,61.00
2017-09-20T12:26:49.985Z,61.00
2017-09-20T12:29:18.385Z,62.30
2017-09-20T12:31:46.867Z,62.00
2017-09-20T12:34:15.364Z,63.70
2017-09-20T12:36:43.811Z,60.70
2017-09-20T12:39:12.436Z,60.70
2017-09-20T12:41:41.085Z,62.00
2017-09-20T12:44:09.533Z,61.40
2017-09-20T12:46:38.145Z,63.60
2017-09-20T12:49:06.594Z,62.40
2017-09-20T12:51:35.031Z,69.30
2017-09-20T12:54:03.454Z,67.80
2017-09-20T12:56:32.079Z,63.10
2017-09-20T12:59:00.525Z,63.70
2017-09-20T13:01:28.758Z,67.40
2017-09-20T13:03:57.218Z,88.10
2017-09-20T13:06:25.626Z,95.80
2017-09-20T13:08:54.045Z,95.80
2017-09-20T13:11:22.467Z,99.20
2017-09-20T13:13:50.880Z,99.90
2017-09-20T13:16:19.318Z,99.90
2017-09-20T13:18:47.773Z,99.90
2017-09-20T13:21:16.985Z,99.90
2017-09-20T13:23:45.426Z,99.90
2017-09-20T13:26:13.923Z,99.90
2017-09-20T13:28:42.367Z,99.90
2017-09-20T13:31:10.817Z,99.90
2017-09-20T13:33:40.066Z,99.90
2017-09-20T13:36:08.496Z,99.90
2017-09-20T13:38:37.716Z,99.90
2017-09-20T13:41:06.183Z,99.90
2017-09-20T13:43:34.642Z,99.90
2017-09-20T13:46:02.883Z,99.90
2017-09-20T13:48:31.375Z,99.90
2017-09-20T13:50:59.794Z,99.90
2017-09-20T13:53:28.241Z,99.90
2017-09-20T13:55:56.702Z,99.90
2017-09-20T13:58:25.150Z,99.90
2017-09-20T14:00:53.603Z,99.90
2017-09-20T14:03:22.090Z,99.90
2017-09-20T14:05:51.327Z,99.90
2017-09-20T14:08:19.881Z,99.90
2017-09-20T14:10:48.375Z,99.90
2017-09-20T14:13:16.836Z,99.90
2017-09-20T14:15:45.385Z,99.90
2017-09-20T14:18:13.857Z,99.90
2017-09-20T14:20:42.306Z,99.90
2017-09-20T14:23:11.520Z,99.90
2017-09-20T14:25:40.103Z,99.90
2017-09-20T14:28:08.579Z,99.90
2017-09-20T14:30:37.021Z,99.90
2017-09-20T14:33:05.802Z,99.90
2017-09-20T14:35:34.282Z,99.90
2017-09-20T14:38:02.751Z,99.90
2017-09-20T14:40:31.205Z,99.90
2017-09-20T14:43:00.163Z,84.80
2017-09-20T14:45:30.374Z,88.30
2017-09-20T14:47:58.910Z,88.20
2017-09-20T14:50:27.482Z,77.90
2017-09-20T14:52:55.902Z,73.70
2017-09-20T14:55:24.323Z,63.90
2017-09-20T14:57:52.890Z,67.80
2017-09-20T15:00:21.554Z,70.90
2017-09-20T15:02:50.020Z,62.00
2017-09-20T15:05:18.707Z,68.80
2017-09-20T15:07:47.158Z,70.50
2017-09-20T15:10:15.671Z,67.80
2017-09-20T15:12:44.162Z,70.50
2017-09-20T15:15:13.262Z,68.80
2017-09-20T15:17:42.653Z,70.70
2017-09-20T15:20:13.336Z,70.60
2017-09-20T15:22:41.807Z,70.30
2017-09-20T15:25:10.540Z,74.20
2017-09-20T15:27:40.238Z,75.70
2017-09-20T15:30:08.691Z,72.10
2017-09-20T15:32:38.978Z,77.10
2017-09-20T15:35:11.377Z,79.80
2017-09-20T15:37:39.818Z,78.80
2017-09-20T15:40:08.571Z,79.80
2017-09-20T15:42:37.140Z,77.60
2017-09-20T15:45:06.612Z,74.70
2017-09-20T15:47:35.318Z,74.60
2017-09-20T15:50:03.790Z,74.30
2017-09-20T15:52:32.508Z,75.70
2017-09-20T15:55:01.774Z,77.00
2017-09-20T15:57:30.933Z,75.60
2017-09-20T15:59:59.488Z,79.40
2017-09-20T16:02:29.505Z,80.30
2017-09-20T16:04:58.258Z,80.70
2017-09-20T16:07:26.959Z,74.10
2017-09-20T16:09:55.117Z,76.10
2017-09-20T16:12:23.630Z,76.70
2017-09-20T16:14:52.180Z,75.90
2017-09-20T16:17:20.670Z,77.70
2017-09-20T16:22:23.564Z,76.50
2017-09-20T16:24:52.070Z,74.30
2017-09-20T16:27:20.547Z,73.00
2017-09-20T16:29:49.336Z,75.80
2017-09-20T16:37:31.759Z,74.10
2017-09-20T16:40:01.087Z,74.10
2017-09-20T16:47:46.912Z,80.40
2017-09-20T16:50:17.332Z,78.20
2017-09-20T16:52:46.797Z,90.90
2017-09-20T17:07:45.532Z,99.90
2017-09-20T17:10:14.028Z,99.90
2017-09-20T17:12:42.721Z,99.90
2017-09-20T17:15:10.969Z,99.90
2017-09-20T17:17:40.295Z,99.90
2017-09-20T17:20:10.186Z,99.90
2017-09-20T17:22:39.346Z,99.90
2017-09-20T17:25:08.802Z,99.90
2017-09-20T17:27:37.921Z,99.90
2017-09-20T17:30:07.306Z,99.90
2017-09-20T17:32:36.535Z,99.90
2017-09-20T17:35:05.039Z,99.90
2017-09-20T17:37:33.564Z,99.90
2017-09-20T17:40:02.130Z,99.90
2017-09-20T17:42:30.724Z,99.90
2017-09-20T17:45:00.689Z,99.90
2017-09-20T17:47:30.228Z,99.90
2017-09-20T17:49:59.286Z,99.90
2017-09-20T17:52:27.808Z,99.90
2017-09-20T17:54:56.275Z,99.90
2017-09-20T17:57:24.706Z,99.90
2017-09-20T17:59:53.202Z,99.90
2017-09-20T18:02:21.633Z,99.90
2017-09-20T18:04:50.091Z,99.90
2017-09-20T18:07:18.614Z,99.90
2017-09-20T18:09:47.047Z,99.90
2017-09-20T18:12:16.258Z,99.90
2017-09-20T18:14:44.677Z,99.90
2017-09-20T18:17:13.077Z,99.90
2017-09-20T18:19:41.481Z,99.90
2017-09-20T18:22:10.682Z,99.90
2017-09-20T18:24:39.849Z,99.90
2017-09-20T18:27:08.241Z,99.90
2017-09-20T18:29:36.936Z,99.90
2017-09-20T18:32:06.238Z,99.90
2017-09-20T18:34:35.474Z,99.90
2017-09-20T18:37:04.054Z,99.90
2017-09-20T18:39:32.494Z,99.90
2017-09-20T18:42:00.971Z,99.90
2017-09-20T18:44:30.347Z,99.90
2017-09-20T18:46:58.746Z,99.90
2017-09-20T18:49:27.671Z,99.90
2017-09-20T18:51:56.106Z,99.90
2017-09-20T18:54:24.507Z,99.90
2017-09-20T18:56:52.943Z,99.90
2017-09-20T18:59:21.343Z,99.90
2017-09-20T19:01:49.797Z,99.90
2017-09-20T19:04:18.292Z,99.90
2017-09-20T19:06:46.705Z,99.90
2017-09-20T19:09:15.110Z,99.90
2017-09-20T19:11:43.560Z,99.90
2017-09-20T19:14:11.953Z,99.90
2017-09-20T19:16:40.353Z,99.90
2017-09-20T19:19:08.766Z,99.90
2017-09-20T19:21:37.165Z,99.90
2017-09-20T19:24:05.566Z,99.90
2017-09-20T19:26:33.823Z,99.90
2017-09-20T19:29:02.037Z,99.90
2017-09-20T19:31:30.252Z,99.90
2017-09-20T19:33:58.934Z,99.90
2017-09-20T19:36:27.337Z,99.90
2017-09-20T19:38:55.733Z,99.90
2017-09-20T19:41:24.182Z,99.90
2017-09-20T19:43:52.866Z,99.90
2017-09-20T19:46:21.541Z,99.90
2017-09-20T19:48:50.741Z,99.90
2017-09-20T19:51:19.222Z,99.90
2017-09-20T19:53:47.713Z,99.90
2017-09-20T19:56:16.906Z,99.90
2017-09-20T19:58:45.601Z,99.90
2017-09-20T20:01:14.007Z,99.90
2017-09-20T20:03:42.433Z,99.90
2017-09-20T20:06:10.829Z,99.90
2017-09-20T20:08:39.237Z,99.90
2017-09-20T20:11:07.661Z,99.90
2017-09-20T20:13:36.329Z,99.90
2017-09-20T20:16:05.758Z,99.90
2017-09-20T20:18:34.437Z,99.90
2017-09-20T20:21:03.114Z,99.90
2017-09-20T20:23:31.774Z,99.90
2017-09-20T20:26:00.266Z,99.90
2017-09-20T20:28:29.746Z,99.90
2017-09-20T20:30:58.413Z,99.90
2017-09-20T20:33:27.140Z,99.90
2017-09-20T20:35:55.537Z,99.90
2017-09-20T20:38:23.934Z,99.90
2017-09-20T20:40:52.346Z,99.90
2017-09-20T20:43:20.743Z,99.90
2017-09-20T20:45:48.965Z,99.90
2017-09-20T20:48:17.194Z,99.90
2017-09-20T20:50:45.441Z,99.90
2017-09-20T20:53:13.774Z,99.90
2017-09-20T20:55:42.170Z,99.60
2017-09-20T20:58:10.601Z,99.30
2017-09-20T21:00:39.842Z,99.30
2017-09-20T21:03:08.298Z,99.30
2017-09-20T21:05:36.898Z,99.50
2017-09-20T21:08:05.321Z,99.40
2017-09-20T21:10:33.725Z,98.80
2017-09-20T21:13:02.918Z,98.60
2017-09-20T21:15:32.089Z,98.50
2017-09-20T21:18:00.305Z,99.50
2017-09-20T21:23:22.938Z,98.30
2017-09-20T21:25:51.337Z,98.30
2017-09-20T21:28:20.518Z,99.20
2017-09-20T21:30:49.245Z,99.20
2017-09-20T21:33:18.406Z,99.90
2017-09-20T21:35:46.815Z,99.90
2017-09-20T21:38:16.005Z,97.40
2017-09-20T21:40:45.186Z,98.50
2017-09-20T21:43:13.585Z,98.50
2017-09-20T21:45:42.781Z,97.80
2017-09-20T21:48:11.205Z,97.70
2017-09-20T21:50:39.603Z,97.50
2017-09-20T21:53:08.011Z,96.90
2017-09-20T21:55:36.703Z,97.30
2017-09-20T21:58:05.371Z,96.90
2017-09-20T22:00:33.781Z,97.20
2017-09-20T22:03:03.005Z,97.00
2017-09-20T22:05:31.460Z,97.00
2017-09-20T22:08:00.710Z,97.50
2017-09-20T22:10:29.421Z,97.50
2017-09-20T22:12:57.840Z,97.00
2017-09-20T22:15:37.957Z,97.70
2017-09-20T22:18:17.407Z,97.70
2017-09-20T22:20:57.589Z,99.30
2017-09-20T22:23:37.064Z,99.30
2017-09-20T22:26:16.445Z,98.50
2017-09-20T22:28:44.714Z,97.80
2017-09-20T22:31:12.929Z,98.00
2017-09-20T22:33:41.370Z,99.10
2017-09-20T22:36:09.825Z,97.90
2017-09-20T22:38:38.237Z,97.60
2017-09-20T22:41:06.901Z,97.60
2017-09-20T22:43:35.333Z,97.30
2017-09-20T22:46:04.497Z,98.00
2017-09-20T22:48:32.907Z,98.00
2017-09-20T22:51:02.097Z,99.30
2017-09-20T22:53:31.082Z,97.10
2017-09-20T22:55:59.478Z,97.10
2017-09-20T22:58:27.910Z,98.10
2017-09-20T23:00:55.622Z,97.50
2017-09-20T23:03:24.024Z,97.90
2017-09-20T23:05:52.437Z,97.50
2017-09-20T23:08:20.884Z,98.10
2017-09-20T23:10:49.281Z,98.60
2017-09-20T23:13:17.677Z,98.00
2017-09-20T23:15:46.106Z,98.80
2017-09-20T23:18:15.277Z,99.80
2017-09-20T23:20:43.681Z,99.70
2017-09-20T23:23:12.085Z,99.90
2017-09-20T23:25:40.479Z,99.90
2017-09-20T23:28:08.722Z,99.90
2017-09-20T23:30:37.886Z,99.90
2017-09-20T23:33:06.286Z,99.90
2017-09-20T23:35:34.733Z,99.90
2017-09-20T23:38:03.163Z,99.90
2017-09-20T23:40:31.566Z,99.90
2017-09-20T23:42:59.992Z,99.90
2017-09-20T23:45:28.653Z,99.90
2017-09-20T23:47:58.088Z,99.90
2017-09-20T23:50:26.760Z,99.90
2017-09-20T23:52:55.431Z,99.90
2017-09-20T23:55:23.832Z,99.90
2017-09-20T23:57:52.589Z,99.90
